Time;durP1;ratioP1;P1;durP2;ratioP2;P2;SDS_P1;SDS_P2;PMS_P1;PMS_P2;Temp;Humidity;BMP_temperature;BMP_pressure;BME280_temperature;BME280_humidity;BME280_pressure;Samples;Min_cycle;Max_cycle;Signal;HPM_P1;HPM_P2
2023/01/03 00:02:09;;;;;;;22.27;14.57;;;;;;;6.80;86.57;102157.75;5137480;27;20684;-65
2023/01/03 00:04:35;;;;;;;17.13;12.67;;;;;;;6.78;86.02;102156.91;5137676;27;20522;-65
2023/01/03 00:07:02;;;;;;;19.60;12.97;;;;;;;6.78;86.36;102154.25;5137186;27;20216;-65
2023/01/03 00:09:28;;;;;;;26.57;13.63;;;;;;;6.77;86.13;102160.47;5137267;27;20184;-65
2023/01/03 00:14:41;;;;;;;22.00;14.03;;;;;;;6.68;86.13;102162.56;5137849;27;20177;-65
2023/01/03 00:17:09;;;;;;;20.03;14.30;;;;;;;6.65;86.06;102162.69;5137131;27;20200;-65
2023/01/03 00:19:42;;;;;;;17.40;13.40;;;;;;;6.59;86.40;102161.09;5137158;27;20222;-65
2023/01/03 00:22:10;;;;;;;18.13;13.17;;;;;;;6.59;86.34;102155.78;5137289;27;20203;-65
2023/01/03 00:24:37;;;;;;;15.27;11.40;;;;;;;6.56;86.09;102158.50;5137100;27;20188;-65
2023/01/03 00:27:04;;;;;;;12.70;11.40;;;;;;;6.58;85.52;102160.22;5137142;27;20745;-65
2023/01/03 00:29:30;;;;;;;16.60;11.53;;;;;;;6.52;85.60;102152.44;5137448;27;20271;-65
2023/01/03 00:31:57;;;;;;;15.33;10.60;;;;;;;6.55;85.71;102154.13;5136918;27;20189;-65
2023/01/03 00:34:24;;;;;;;12.07;11.03;;;;;;;6.55;85.15;102162.09;5136883;27;20203;-65
2023/01/03 00:36:50;;;;;;;16.13;11.30;;;;;;;6.48;85.12;102166.75;5136732;27;20209;-65
2023/01/03 00:39:17;;;;;;;11.03;8.40;;;;;;;6.55;84.63;102167.44;5136744;27;20614;-65
2023/01/03 00:41:44;;;;;;;10.53;9.60;;;;;;;6.50;84.69;102172.03;5136977;27;20267;-65
2023/01/03 00:44:11;;;;;;;11.17;10.10;;;;;;;6.49;84.73;102172.94;5136786;27;20264;-65
2023/01/03 00:46:37;;;;;;;8.63;7.83;;;;;;;6.46;84.59;102173.91;5136985;27;20299;-67
2023/01/03 00:49:06;;;;;;;9.73;8.73;;;;;;;6.43;84.09;102184.66;5136455;27;20184;-65
2023/01/03 00:51:34;;;;;;;8.67;8.07;;;;;;;6.36;84.68;102186.63;5136514;27;20226;-66
2023/01/03 00:54:03;;;;;;;8.93;8.10;;;;;;;6.38;84.05;102198.09;5137025;27;20169;-66
2023/01/03 00:56:36;;;;;;;11.50;7.80;;;;;;;6.45;83.42;102187.28;5136714;27;20287;-66
2023/01/03 00:59:03;;;;;;;11.17;8.43;;;;;;;6.39;83.49;102194.53;5136697;27;20181;-66
2023/01/03 01:01:34;;;;;;;7.80;7.10;;;;;;;6.33;83.51;102201.81;5136909;27;20650;-66
2023/01/03 01:04:20;;;;;;;8.20;7.73;;;;;;;6.38;83.47;102202.53;5136911;27;20169;-66
2023/01/03 01:06:58;;;;;;;13.20;6.53;;;;;;;6.35;83.54;102207.97;5136196;27;20216;-66
2023/01/03 01:09:28;;;;;;;8.30;7.67;;;;;;;6.34;83.65;102214.19;5136516;27;20207;-67
2023/01/03 01:11:55;;;;;;;7.83;7.20;;;;;;;6.30;83.54;102215.22;5136419;27;20556;-67
2023/01/03 01:14:24;;;;;;;14.03;7.10;;;;;;;6.28;83.85;102209.06;5136104;27;20216;-67
2023/01/03 01:16:59;;;;;;;10.13;7.53;;;;;;;6.28;83.88;102209.94;5135997;27;20208;-67
2023/01/03 01:19:29;;;;;;;8.63;7.37;;;;;;;6.29;83.95;102208.13;5136278;27;20207;-65
2023/01/03 01:21:56;;;;;;;6.87;6.53;;;;;;;6.32;83.96;102219.56;5135897;27;20666;-65
2023/01/03 01:24:23;;;;;;;10.53;7.50;;;;;;;6.37;84.02;102216.78;5136122;27;20595;-65
2023/01/03 01:26:50;;;;;;;7.60;7.20;;;;;;;6.39;84.08;102221.13;5135946;27;20243;-65
2023/01/03 01:29:17;;;;;;;9.00;8.00;;;;;;;6.41;84.04;102215.75;5135764;27;20658;-65
2023/01/03 01:31:45;;;;;;;9.37;7.87;;;;;;;6.37;84.27;102215.00;5135718;27;20272;-65
2023/01/03 01:34:12;;;;;;;7.97;7.20;;;;;;;6.37;84.60;102222.09;5135709;27;20714;-65
2023/01/03 01:36:40;;;;;;;9.10;8.23;;;;;;;6.40;84.26;102224.66;5135581;27;20197;-65
2023/01/03 01:39:19;;;;;;;8.43;7.57;;;;;;;6.38;84.59;102229.16;5136128;27;20185;-65
2023/01/03 01:44:56;;;;;;;9.43;7.83;;;;;;;6.39;84.59;102234.44;5135785;27;20596;-65
2023/01/03 01:47:50;;;;;;;9.20;8.30;;;;;;;6.37;84.90;102241.59;5135258;27;20304;-65
2023/01/03 01:50:25;;;;;;;9.50;8.53;;;;;;;6.38;84.81;102238.00;5135651;27;20177;-65
2023/01/03 01:52:56;;;;;;;14.10;8.77;;;;;;;6.43;84.47;102237.00;5135631;27;20252;-65
2023/01/03 01:55:27;;;;;;;10.50;9.57;;;;;;;6.47;84.08;102241.31;5135564;27;20184;-65
2023/01/03 01:57:53;;;;;;;14.53;9.17;;;;;;;6.43;84.36;102244.97;5135179;27;20204;-65
2023/01/03 02:00:20;;;;;;;9.23;8.83;;;;;;;6.45;83.96;102246.69;5135703;27;20184;-66
2023/01/03 02:02:49;;;;;;;12.77;9.10;;;;;;;6.39;83.87;102252.16;5133845;27;20234;-66
2023/01/03 02:05:18;;;;;;;10.63;9.13;;;;;;;6.30;84.14;102252.47;5135147;27;20255;-66
2023/01/03 02:07:50;;;;;;;14.87;10.40;;;;;;;6.26;84.19;102251.66;5134893;27;20299;-66
2023/01/03 02:10:20;;;;;;;10.10;9.20;;;;;;;6.20;84.27;102253.63;5135295;27;20670;-66
2023/01/03 02:13:07;;;;;;;10.73;9.40;;;;;;;6.16;84.19;102252.88;5135051;27;20200;-66
2023/01/03 02:15:58;;;;;;;11.47;9.97;;;;;;;6.15;84.37;102259.09;5135226;27;20179;-66
2023/01/03 02:18:56;;;;;;;11.27;9.93;;;;;;;6.19;84.26;102268.72;5135376;27;20183;-66
2023/01/03 02:21:41;;;;;;;20.73;11.50;;;;;;;6.22;84.92;102265.97;5135274;27;20203;-66
2023/01/03 02:24:19;;;;;;;12.47;11.43;;;;;;;6.22;84.86;102268.63;5135086;27;20180;-66
2023/01/03 02:26:46;;;;;;;17.03;11.63;;;;;;;6.26;85.15;102277.41;5134583;27;20239;-66
2023/01/03 02:29:42;;;;;;;10.90;9.97;;;;;;;6.26;85.02;102282.72;5134623;27;20275;-66
2023/01/03 02:32:15;;;;;;;12.27;11.27;;;;;;;6.29;85.29;102285.28;5134961;27;20526;-66
2023/01/03 02:34:53;;;;;;;13.30;11.90;;;;;;;6.29;85.01;102280.84;5135211;27;20224;-66
2023/01/03 02:37:41;;;;;;;12.40;11.07;;;;;;;6.33;84.88;102286.97;5134715;27;20282;-66
2023/01/03 02:40:26;;;;;;;11.13;10.07;;;;;;;6.38;84.77;102291.22;5135097;27;20354;-66
2023/01/03 02:43:02;;;;;;;11.87;10.67;;;;;;;6.34;85.04;102288.69;5134780;27;20187;-66
2023/01/03 02:45:34;;;;;;;12.83;11.53;;;;;;;6.36;85.08;102287.72;5134751;27;20545;-66
2023/01/03 02:48:10;;;;;;;14.80;11.23;;;;;;;6.31;85.37;102283.47;5134864;27;20217;-66
2023/01/03 02:50:44;;;;;;;21.23;12.90;;;;;;;6.33;85.17;102287.81;5134603;27;20184;-66
2023/01/03 02:53:15;;;;;;;12.90;11.83;;;;;;;6.35;85.04;102283.34;5133530;27;20247;-66
2023/01/03 02:55:43;;;;;;;20.30;11.83;;;;;;;6.37;84.85;102283.31;5134843;27;20619;-66
2023/01/03 02:58:24;;;;;;;21.37;11.73;;;;;;;6.34;84.58;102281.56;5134285;27;20183;-66
2023/01/03 03:00:54;;;;;;;19.00;12.50;;;;;;;6.33;84.46;102287.81;5134284;28;20183;-66
2023/01/03 03:03:27;;;;;;;16.47;13.57;;;;;;;6.36;84.01;102290.38;5134850;28;20168;-66
2023/01/03 03:06:03;;;;;;;20.17;14.47;;;;;;;6.36;83.65;102281.53;5134127;27;20180;-66
2023/01/03 03:08:29;;;;;;;17.97;13.83;;;;;;;6.33;83.44;102286.97;5116233;28;20184;-66
2023/01/03 03:13:57;;;;;;;19.63;14.90;;;;;;;6.23;82.76;102286.34;5134457;28;20251;-66
2023/01/03 03:16:47;;;;;;;20.63;15.30;;;;;;;6.15;83.08;102275.94;5134615;27;20214;-66
2023/01/03 03:25:35;;;;;;;17.80;13.83;;;;;;;6.02;84.14;102284.28;5134650;28;20176;-66
2023/01/03 03:30:57;;;;;;;20.90;15.40;;;;;;;5.91;84.87;102288.09;5134277;28;20658;-65
2023/01/03 03:33:27;;;;;;;21.17;16.57;;;;;;;5.97;84.94;102284.41;5133997;28;20179;-65
2023/01/03 03:35:58;;;;;;;29.50;17.53;;;;;;;5.90;84.97;102283.66;5134094;27;20263;-66
2023/01/03 03:38:32;;;;;;;26.53;18.40;;;;;;;5.97;84.95;102282.63;5134301;28;20261;-66
2023/01/03 03:47:03;;;;;;;34.43;21.30;;;;;;;5.93;84.47;102278.25;5102454;27;20739;-66
2023/01/03 03:49:38;;;;;;;30.90;21.23;;;;;;;5.90;84.56;102288.13;5134418;28;20571;-66
2023/01/03 03:52:09;;;;;;;32.77;20.50;;;;;;;5.90;84.30;102285.47;5134101;28;20204;-66
2023/01/03 03:54:38;;;;;;;28.93;20.30;;;;;;;5.85;84.52;102284.72;5134040;28;20177;-66
2023/01/03 03:57:26;;;;;;;30.53;19.10;;;;;;;5.79;84.91;102295.50;5133727;27;20203;-66
2023/01/03 04:00:04;;;;;;;28.40;19.20;;;;;;;5.75;85.16;102292.94;5133752;28;20677;-66
2023/01/03 04:02:39;;;;;;;26.83;19.63;;;;;;;5.72;85.60;102293.03;5133751;28;20635;-66
2023/01/03 04:05:09;;;;;;;21.07;16.93;;;;;;;5.68;85.38;102301.13;5135643;27;20184;-66
2023/01/03 04:07:38;;;;;;;20.57;16.70;;;;;;;5.70;85.09;102304.63;5137562;27;20216;-66
2023/01/03 04:10:07;;;;;;;34.03;19.23;;;;;;;5.61;84.99;102297.75;5137923;27;20642;-66
2023/01/03 04:12:34;;;;;;;21.40;16.57;;;;;;;5.66;84.90;102302.94;5137352;27;20223;-66
2023/01/03 04:15:02;;;;;;;19.20;15.87;;;;;;;5.66;85.00;102303.81;5137879;27;20594;-67
2023/01/03 04:17:29;;;;;;;19.93;16.70;;;;;;;5.67;85.13;102309.97;5137331;27;20209;-67
2023/01/03 04:19:55;;;;;;;27.23;16.90;;;;;;;5.64;85.28;102304.75;5137444;27;20628;-67
2023/01/03 04:22:21;;;;;;;27.30;16.40;;;;;;;5.59;85.18;102306.66;5137079;27;20654;-67
2023/01/03 04:24:48;;;;;;;19.60;16.57;;;;;;;5.61;85.00;102302.19;5137642;27;20651;-66
2023/01/03 04:27:14;;;;;;;19.03;15.33;;;;;;;5.59;85.40;102311.97;5136915;27;20299;-66
2023/01/03 04:29:41;;;;;;;20.87;16.57;;;;;;;5.64;85.50;102302.09;5137273;27;20272;-66
2023/01/03 04:32:08;;;;;;;21.07;16.33;;;;;;;5.63;85.16;102308.34;5136946;27;20638;-66
2023/01/03 04:34:35;;;;;;;31.30;18.17;;;;;;;5.62;85.22;102302.13;5136905;27;20271;-66
2023/01/03 04:37:01;;;;;;;28.50;16.40;;;;;;;5.64;85.45;102299.44;5136732;27;20236;-66
2023/01/03 04:39:27;;;;;;;21.43;17.60;;;;;;;5.57;85.86;102311.16;5137363;27;20185;-66
2023/01/03 04:41:54;;;;;;;27.80;18.30;;;;;;;5.56;85.99;102310.28;5136727;27;20662;-66
2023/01/03 04:44:20;;;;;;;23.37;17.13;;;;;;;5.55;85.79;102316.47;5136677;27;20185;-66
2023/01/03 04:46:47;;;;;;;22.30;14.27;;;;;;;5.57;85.60;102313.81;5137036;27;20696;-66
2023/01/03 04:49:19;;;;;;;18.10;15.37;;;;;;;5.47;86.26;102316.69;5136930;27;20252;-66
2023/01/03 04:51:45;;;;;;;23.40;14.93;;;;;;;5.50;86.01;102323.69;5136557;27;20220;-66
2023/01/03 04:54:12;;;;;;;14.77;13.17;;;;;;;5.45;85.82;102321.16;5137054;27;20540;-66
2023/01/03 04:56:38;;;;;;;15.93;12.10;;;;;;;5.44;86.19;102316.75;5136405;27;20261;-67
2023/01/03 04:59:04;;;;;;;11.87;10.83;;;;;;;5.39;86.02;102318.66;5136397;27;20212;-67
2023/01/03 05:01:31;;;;;;;14.97;11.20;;;;;;;5.30;86.53;102322.41;5136372;27;20189;-67
2023/01/03 05:03:59;;;;;;;14.87;11.33;;;;;;;5.27;86.17;102316.31;5136337;27;20202;-66
2023/01/03 05:06:26;;;;;;;11.80;10.67;;;;;;;5.24;86.29;102319.03;5136487;27;20287;-67
2023/01/03 05:08:53;;;;;;;14.77;10.77;;;;;;;5.27;86.36;102324.28;5136152;27;20208;-67
2023/01/03 05:11:20;;;;;;;10.80;9.47;;;;;;;5.17;87.01;102326.28;5136439;27;20546;-66
2023/01/03 05:13:46;;;;;;;10.70;9.77;;;;;;;5.27;86.65;102324.28;5136635;27;20188;-66
2023/01/03 05:16:14;;;;;;;9.83;9.03;;;;;;;5.21;86.39;102327.06;5135068;27;20217;-66
2023/01/03 05:18:43;;;;;;;11.77;10.03;;;;;;;5.15;86.63;102327.19;5136036;27;20185;-66
2023/01/03 05:26:45;;;;;;;9.00;8.27;;;;;;;4.99;86.09;102327.56;5136379;27;20287;-66
2023/01/03 05:29:14;;;;;;;11.47;9.53;;;;;;;4.96;86.50;102327.66;5135819;27;20185;-66
2023/01/03 05:31:40;;;;;;;10.47;9.23;;;;;;;4.93;87.07;102327.69;5135737;27;20271;-66
2023/01/03 05:34:07;;;;;;;8.87;8.37;;;;;;;4.93;86.59;102318.84;5135722;27;20222;-66
2023/01/03 05:36:33;;;;;;;10.73;8.93;;;;;;;4.86;87.18;102313.72;5135615;27;20286;-66
2023/01/03 05:39:00;;;;;;;13.93;9.23;;;;;;;4.88;87.30;102313.66;5135616;27;20185;-66
2023/01/03 05:44:11;;;;;;;11.63;9.03;;;;;;;4.80;86.76;102327.09;5136099;27;20264;-66
2023/01/03 05:46:38;;;;;;;10.73;9.70;;;;;;;4.79;87.45;102329.78;5135435;27;20288;-66
2023/01/03 05:49:04;;;;;;;9.63;9.03;;;;;;;4.72;86.64;102325.50;5135912;27;20211;-66
2023/01/03 05:51:31;;;;;;;10.73;9.87;;;;;;;4.65;86.42;102322.13;5135669;27;20184;-66
2023/01/03 05:53:57;;;;;;;10.43;9.47;;;;;;;4.60;87.18;102324.00;5135527;27;20220;-66
2023/01/03 05:56:23;;;;;;;10.53;9.73;;;;;;;4.52;86.75;102323.28;5135279;27;20214;-66
2023/01/03 05:58:50;;;;;;;12.53;9.47;;;;;;;4.52;86.74;102312.66;5135272;27;20755;-66
2023/01/03 06:01:17;;;;;;;10.50;9.63;;;;;;;4.48;87.02;102323.34;5135184;27;20257;-66
2023/01/03 06:03:45;;;;;;;13.33;9.53;;;;;;;4.45;87.09;102330.47;5135169;27;20193;-66
2023/01/03 06:06:13;;;;;;;12.30;10.33;;;;;;;4.42;87.43;102335.88;5135280;27;20204;-66
2023/01/03 06:08:40;;;;;;;10.47;9.77;;;;;;;4.33;87.10;102339.56;5134906;27;20200;-66
2023/01/03 06:11:08;;;;;;;15.20;9.30;;;;;;;4.31;86.87;102336.09;5134967;27;20647;-66
2023/01/03 06:13:35;;;;;;;12.63;9.70;;;;;;;4.25;87.66;102336.19;5135233;27;20192;-66
2023/01/03 06:18:55;;;;;;;12.03;9.93;;;;;;;4.26;87.38;102336.19;5135422;27;20161;-66
2023/01/03 06:21:22;;;;;;;15.43;11.57;;;;;;;4.34;87.85;102335.16;5134984;27;20279;-66
2023/01/03 06:23:48;;;;;;;12.80;10.63;;;;;;;4.38;87.80;102335.06;5134966;27;20219;-66
2023/01/03 06:26:17;;;;;;;13.20;10.97;;;;;;;4.33;87.49;102322.78;5134660;27;20203;-66
2023/01/03 06:28:44;;;;;;;11.20;9.60;;;;;;;4.31;88.16;102319.28;5134411;27;20757;-66
2023/01/03 06:31:11;;;;;;;12.33;10.63;;;;;;;4.31;88.43;102327.25;5134639;27;20236;-66
2023/01/03 06:33:38;;;;;;;14.93;11.43;;;;;;;4.33;88.19;102315.69;5134594;27;20188;-66
2023/01/03 06:36:11;;;;;;;11.30;10.30;;;;;;;4.35;88.45;102327.16;5134421;27;20295;-66
2023/01/03 06:38:39;;;;;;;13.20;11.13;;;;;;;4.30;88.04;102329.03;5134849;27;20232;-66
2023/01/03 06:41:06;;;;;;;17.80;10.23;;;;;;;4.28;88.29;102324.66;5135001;27;20184;-66
2023/01/03 06:43:33;;;;;;;13.07;10.03;;;;;;;4.25;88.47;102329.09;5134469;27;20670;-66
2023/01/03 06:54:25;;;;;;;18.73;11.63;;;;;;;4.22;88.25;102341.56;5134879;27;20602;-66
2023/01/03 06:56:52;;;;;;;12.53;11.20;;;;;;;4.19;88.67;102334.56;5134240;27;20286;-66
2023/01/03 06:59:20;;;;;;;11.20;10.10;;;;;;;4.20;88.83;102336.28;5134808;27;20186;-66
2023/01/03 07:01:48;;;;;;;10.60;9.90;;;;;;;4.18;87.87;102340.75;5134719;28;20195;-66
2023/01/03 07:04:16;;;;;;;12.13;11.10;;;;;;;4.19;88.59;102341.59;5134187;28;20232;-66
2023/01/03 07:06:43;;;;;;;12.17;11.17;;;;;;;4.18;88.52;102338.09;5134279;27;20275;-66
2023/01/03 07:09:11;;;;;;;14.73;9.73;;;;;;;4.18;88.58;102334.56;5134443;28;20202;-66
2023/01/03 07:11:38;;;;;;;12.23;11.00;;;;;;;4.20;88.80;102330.13;5134725;28;20267;-66
2023/01/03 07:14:06;;;;;;;18.13;11.00;;;;;;;4.18;89.33;102327.47;5134137;28;20187;-66
2023/01/03 07:16:36;;;;;;;28.10;12.83;;;;;;;4.21;90.03;102335.41;5134046;27;20713;-66
2023/01/03 07:19:05;;;;;;;14.67;11.47;;;;;;;4.23;89.80;102333.56;5134064;28;20274;-66
2023/01/03 07:21:33;;;;;;;19.70;12.63;;;;;;;4.30;89.69;102333.47;5133927;28;20666;-66
2023/01/03 07:24:01;;;;;;;14.93;11.93;;;;;;;4.39;89.20;102338.59;5134044;28;20653;-66
2023/01/03 07:26:29;;;;;;;15.00;11.00;;;;;;;4.44;89.19;102339.38;5133909;27;20212;-66
2023/01/03 07:28:57;;;;;;;12.57;10.17;;;;;;;4.43;89.25;102348.22;5133967;28;20199;-66
2023/01/03 07:31:23;;;;;;;15.40;13.80;;;;;;;4.50;89.24;102346.31;5134239;28;20728;-66
2023/01/03 07:33:51;;;;;;;17.00;12.07;;;;;;;4.51;89.75;102346.28;5133959;28;20658;-66
2023/01/03 07:36:19;;;;;;;12.77;11.23;;;;;;;4.46;89.46;102348.16;5134111;27;20243;-66
2023/01/03 07:38:46;;;;;;;13.00;11.67;;;;;;;4.47;89.59;102345.47;5133885;27;20263;-66
2023/01/03 07:41:13;;;;;;;12.60;9.47;;;;;;;4.49;90.24;102345.44;5138131;27;20271;-66
2023/01/03 07:43:45;;;;;;;12.43;10.83;;;;;;;4.52;90.08;102350.69;5138188;27;20586;-66
2023/01/03 07:46:19;;;;;;;11.60;10.40;;;;;;;4.46;89.63;102345.50;5138351;27;20291;-67
2023/01/03 07:48:50;;;;;;;10.90;9.87;;;;;;;4.48;90.23;102341.94;5138045;27;20251;-66
2023/01/03 07:51:19;;;;;;;11.70;9.63;;;;;;;4.43;89.74;102340.25;5138381;27;20267;-66
2023/01/03 07:53:51;;;;;;;17.43;10.73;;;;;;;4.37;89.79;102343.03;5138237;27;20218;-66
2023/01/03 07:56:18;;;;;;;13.33;10.43;;;;;;;4.40;89.49;102332.38;5138004;27;20208;-67
2023/01/03 07:58:47;;;;;;;12.30;11.03;;;;;;;4.36;90.04;102328.91;5137930;27;20668;-67
2023/01/03 08:01:24;;;;;;;13.73;11.03;;;;;;;4.33;90.06;102325.44;5137735;27;20219;-66
2023/01/03 08:03:50;;;;;;;20.27;11.47;;;;;;;4.35;90.33;102327.16;5137548;27;20215;-66
2023/01/03 08:06:20;;;;;;;12.33;11.03;;;;;;;4.33;89.93;102321.00;5137429;27;20298;-67
2023/01/03 08:13:16;;;;;;;20.30;11.03;;;;;;;4.39;89.77;102312.06;5137604;27;20295;-66
2023/01/03 08:14:21;;;;;;;21.43;11.33;;;;;;;4.41;89.90;102321.72;5137498;27;20196;-66
2023/01/03 08:16:53;;;;;;;10.70;9.63;;;;;;;4.44;89.67;102320.78;5137276;27;20208;-67
2023/01/03 08:19:19;;;;;;;12.93;9.70;;;;;;;4.46;89.69;102334.91;5137302;27;20191;-66
2023/01/03 08:21:45;;;;;;;12.00;10.87;;;;;;;4.48;90.13;102336.63;5137520;27;20224;-66
2023/01/03 08:24:12;;;;;;;12.37;11.17;;;;;;;4.51;89.35;102338.34;5137066;27;20195;-66
2023/01/03 08:26:38;;;;;;;15.20;11.00;;;;;;;4.55;89.53;102341.78;5137008;27;20554;-67
2023/01/03 08:29:06;;;;;;;14.40;11.10;;;;;;;4.59;89.32;102352.31;5136920;27;20264;-66
2023/01/03 08:31:37;;;;;;;15.60;10.73;;;;;;;4.62;89.91;102343.41;5137264;27;20249;-66
2023/01/03 08:34:07;;;;;;;15.33;10.43;;;;;;;4.68;89.75;102338.84;5137158;27;20177;-66
2023/01/03 08:36:48;;;;;;;12.93;10.20;;;;;;;4.74;89.61;102344.94;5137411;27;20232;-67
2023/01/03 08:39:21;;;;;;;14.10;11.93;;;;;;;4.83;89.82;102348.25;5137138;27;20191;-66
2023/01/03 08:41:53;;;;;;;16.27;11.33;;;;;;;4.85;89.71;102349.09;5137395;27;20255;-66
2023/01/03 08:44:19;;;;;;;15.07;10.57;;;;;;;4.90;89.46;102351.66;5137003;27;20169;-66
2023/01/03 08:46:50;;;;;;;18.83;11.10;;;;;;;4.96;89.61;102356.84;5136621;27;20204;-67
2023/01/03 08:49:17;;;;;;;13.93;11.07;;;;;;;5.04;90.18;102354.88;5136536;27;20196;-66
2023/01/03 08:51:44;;;;;;;21.80;13.70;;;;;;;5.15;90.24;102361.72;5135203;27;20267;-66
2023/01/03 08:54:11;;;;;;;25.03;14.13;;;;;;;5.19;90.11;102348.34;5136494;27;20188;-66
2023/01/03 08:56:38;;;;;;;19.17;12.83;;;;;;;5.28;89.76;102350.78;5136989;27;20231;-67
2023/01/03 08:59:05;;;;;;;16.83;12.23;;;;;;;5.35;90.30;102356.84;5136753;27;20189;-66
2023/01/03 09:01:32;;;;;;;17.47;13.60;;;;;;;5.46;90.05;102345.94;5136412;27;20729;-66
2023/01/03 09:03:59;;;;;;;16.43;12.93;;;;;;;5.61;89.74;102329.63;5136387;27;20181;-66
2023/01/03 09:06:25;;;;;;;12.90;11.67;;;;;;;5.76;89.88;102341.66;5136213;27;20208;-66
2023/01/03 09:08:52;;;;;;;22.67;11.73;;;;;;;5.90;90.12;102338.66;5136488;27;20207;-66
2023/01/03 09:11:18;;;;;;;13.87;10.17;;;;;;;6.04;89.90;102341.84;5137050;27;20551;-66
2023/01/03 09:13:44;;;;;;;18.87;10.33;;;;;;;6.13;88.88;102340.69;5136168;27;20203;-66
2023/01/03 09:16:12;;;;;;;10.20;9.27;;;;;;;6.25;88.98;102350.13;5136303;27;20717;-67
2023/01/03 09:18:40;;;;;;;9.97;9.07;;;;;;;6.35;89.12;102347.19;5136598;27;20180;-66
2023/01/03 09:21:07;;;;;;;9.40;8.47;;;;;;;6.49;88.83;102353.91;5135849;27;20271;-66
2023/01/03 09:23:34;;;;;;;13.57;8.57;;;;;;;6.72;87.98;102343.47;5136488;27;20271;-66
2023/01/03 09:26:01;;;;;;;10.67;8.77;;;;;;;6.82;86.45;102344.97;5135802;27;20200;-67
2023/01/03 09:28:29;;;;;;;8.63;7.90;;;;;;;6.89;84.86;102350.94;5136317;27;20284;-67
2023/01/03 09:30:55;;;;;;;7.37;6.73;;;;;;;7.01;83.82;102350.56;5136032;27;20638;-67
2023/01/03 09:33:22;;;;;;;6.90;6.37;;;;;;;7.03;83.38;102350.53;5134581;27;20184;-67
2023/01/03 09:35:51;;;;;;;7.17;6.87;;;;;;;7.12;83.73;102360.91;5135885;27;20215;-67
2023/01/03 09:38:17;;;;;;;5.90;5.70;;;;;;;7.17;82.16;102358.97;5136273;27;20187;-67
2023/01/03 09:40:45;;;;;;;6.30;4.77;;;;;;;7.24;81.72;102354.31;5135583;27;20216;-66
2023/01/03 09:43:22;;;;;;;7.60;6.90;;;;;;;7.36;81.09;102363.72;5135576;27;20184;-66
2023/01/03 09:46:00;;;;;;;6.83;6.50;;;;;;;7.51;80.39;102367.69;5135482;27;20178;-67
2023/01/03 09:48:32;;;;;;;6.67;6.20;;;;;;;7.51;80.43;102362.34;5135894;27;20224;-66
2023/01/03 09:50:59;;;;;;;4.63;4.37;;;;;;;7.59;79.37;102370.97;5135635;27;20168;-67
2023/01/03 10:05:41;;;;;;;4.63;4.40;;;;;;;8.10;79.14;102376.34;5135172;27;20183;-66
2023/01/03 10:08:46;;;;;;;5.17;4.80;;;;;;;8.23;78.15;102363.44;5135341;27;20173;-67
2023/01/03 10:11:53;;;;;;;4.27;4.10;;;;;;;8.36;77.27;102365.69;5062682;27;20288;-66
2023/01/03 10:14:33;;;;;;;4.83;4.57;;;;;;;8.48;77.96;102366.13;5105110;27;20551;-66
2023/01/03 10:17:32;;;;;;;4.73;4.43;;;;;;;8.41;75.27;102369.09;5135158;27;20720;-66
2023/01/03 10:20:24;;;;;;;11.73;4.40;;;;;;;8.43;76.67;102369.91;5123916;27;20287;-66
2023/01/03 10:22:59;;;;;;;4.97;4.83;;;;;;;8.43;76.50;102373.44;5135370;27;20633;-67
2023/01/03 10:25:28;;;;;;;4.60;4.40;;;;;;;8.55;77.81;102364.13;5135335;27;20528;-67
2023/01/03 10:28:03;;;;;;;5.03;4.73;;;;;;;8.57;77.84;102367.59;5134580;27;20204;-67
2023/01/03 10:30:52;;;;;;;4.47;4.17;;;;;;;8.54;76.92;102366.84;5135013;27;20176;-67
2023/01/03 10:33:40;;;;;;;4.10;4.00;;;;;;;8.59;76.25;102363.06;5134654;27;20270;-67
2023/01/03 10:36:08;;;;;;;11.23;4.67;;;;;;;8.46;76.04;102359.97;5134765;27;20249;-67
2023/01/03 10:38:35;;;;;;;5.40;5.00;;;;;;;8.52;76.25;102369.53;5134603;27;20263;-67
2023/01/03 10:41:32;;;;;;;4.67;4.53;;;;;;;8.48;76.93;102365.28;5135118;27;20176;-66
2023/01/03 10:44:01;;;;;;;5.13;4.90;;;;;;;8.43;76.31;102356.56;5134775;27;20200;-66
2023/01/03 10:46:29;;;;;;;4.07;3.87;;;;;;;8.40;76.65;102354.84;5134717;27;20279;-67
2023/01/03 10:49:12;;;;;;;3.80;3.60;;;;;;;8.41;77.23;102359.28;5134886;27;20212;-67
2023/01/03 10:52:01;;;;;;;10.43;4.80;;;;;;;8.47;76.50;102352.81;5134629;27;20184;-67
2023/01/03 10:54:44;;;;;;;4.53;4.37;;;;;;;8.46;76.27;102343.94;5134346;27;20177;-67
2023/01/03 10:57:44;;;;;;;4.43;4.43;;;;;;;8.52;77.05;102345.50;5134606;27;20217;-67
2023/01/03 11:00:36;;;;;;;5.03;4.73;;;;;;;8.50;77.03;102336.72;5134826;27;20177;-67
2023/01/03 11:03:24;;;;;;;4.63;3.73;;;;;;;8.52;76.89;102342.84;5134585;27;20214;-66
2023/01/03 11:05:56;;;;;;;4.73;4.53;;;;;;;8.52;76.44;102337.50;5134368;27;20209;-67
2023/01/03 11:08:40;;;;;;;4.20;3.83;;;;;;;8.52;76.48;102332.16;5134462;28;20302;-66
2023/01/03 11:11:25;;;;;;;4.00;3.70;;;;;;;8.56;77.11;102339.13;5134372;28;20176;-66
2023/01/03 11:14:24;;;;;;;4.17;4.03;;;;;;;8.52;77.37;102345.50;5134301;27;20173;-66
2023/01/03 11:17:03;;;;;;;4.83;4.63;;;;;;;8.55;77.20;102345.44;5138702;27;20682;-67
2023/01/03 11:19:32;;;;;;;3.97;3.80;;;;;;;8.45;76.74;102341.34;5138391;27;20165;-66
2023/01/03 11:22:04;;;;;;;5.07;4.20;;;;;;;8.52;77.39;102326.81;5138228;27;20615;-66
2023/01/03 11:24:38;;;;;;;4.83;4.63;;;;;;;8.59;77.55;102325.66;5138402;27;20176;-66
2023/01/03 11:27:26;;;;;;;4.43;4.30;;;;;;;8.55;77.81;102334.75;5138302;27;20223;-67
2023/01/03 11:30:00;;;;;;;4.27;4.00;;;;;;;8.54;77.87;102326.78;5138441;27;20267;-67
2023/01/03 11:32:35;;;;;;;6.13;3.73;;;;;;;8.61;77.69;102337.16;5138786;27;20576;-67
2023/01/03 11:35:12;;;;;;;5.73;5.30;;;;;;;8.64;77.71;102330.84;5138406;27;20168;-67
2023/01/03 11:38:23;;;;;;;6.07;4.53;;;;;;;8.63;77.85;102335.31;5138270;27;20200;-67
2023/01/03 11:41:15;;;;;;;4.33;4.23;;;;;;;8.60;77.78;102331.91;5138271;27;20583;-66
2023/01/03 11:43:56;;;;;;;4.50;4.30;;;;;;;8.63;77.09;102323.78;5138617;27;20176;-66
2023/01/03 11:46:54;;;;;;;4.43;4.13;;;;;;;8.57;77.50;102326.66;5138221;27;20208;-66
2023/01/03 11:49:51;;;;;;;4.67;4.37;;;;;;;8.63;77.28;102318.44;5138052;27;20207;-66
2023/01/03 11:52:28;;;;;;;4.87;4.30;;;;;;;8.63;77.53;102318.44;5138372;27;20207;-66
2023/01/03 11:55:03;;;;;;;10.23;3.60;;;;;;;8.49;77.85;102314.47;5137985;27;20176;-66
2023/01/03 11:57:44;;;;;;;3.63;3.33;;;;;;;8.47;77.55;102308.31;5138219;27;20290;-66
2023/01/03 12:00:38;;;;;;;4.37;4.17;;;;;;;8.46;78.23;102301.25;5137954;27;20530;-66
2023/01/03 12:03:10;;;;;;;4.30;3.90;;;;;;;8.45;78.41;102301.28;5138094;27;20177;-66
2023/01/03 12:05:41;;;;;;;4.27;4.17;;;;;;;8.50;77.73;102308.22;5137537;27;20196;-66
2023/01/03 12:08:13;;;;;;;4.00;3.80;;;;;;;8.52;78.46;102303.69;5137456;27;20173;-67
2023/01/03 12:11:09;;;;;;;5.13;4.23;;;;;;;8.47;78.12;102308.31;5137890;27;20622;-66
2023/01/03 12:13:44;;;;;;;5.07;4.73;;;;;;;8.47;78.20;102302.97;5137597;27;20184;-66
2023/01/03 12:16:22;;;;;;;5.30;5.00;;;;;;;8.51;77.88;102307.28;5137415;27;20196;-66
2023/01/03 12:18:59;;;;;;;3.97;3.77;;;;;;;8.57;78.03;102299.94;5137114;27;20173;-66
2023/01/03 12:21:35;;;;;;;4.43;4.03;;;;;;;8.65;77.79;102304.09;5137161;27;20200;-66
2023/01/03 12:24:11;;;;;;;6.67;5.07;;;;;;;8.67;77.83;102299.56;5137767;27;20585;-66
2023/01/03 12:26:41;;;;;;;4.37;4.27;;;;;;;8.69;77.88;102299.47;5137251;27;20208;-66
2023/01/03 12:29:15;;;;;;;6.00;4.20;;;;;;;8.77;77.96;102296.53;5137255;27;20571;-66
2023/01/03 12:32:27;;;;;;;3.93;3.63;;;;;;;8.78;77.21;102292.91;5137612;27;20256;-66
2023/01/03 12:35:21;;;;;;;7.47;4.60;;;;;;;8.81;77.54;102283.00;5053739;28;20282;-67
2023/01/03 12:37:49;;;;;;;4.87;4.70;;;;;;;8.79;77.76;102286.63;5117467;27;20212;-66
2023/01/03 12:40:25;;;;;;;4.27;4.17;;;;;;;8.82;76.98;102283.88;5136972;27;20190;-66
2023/01/03 12:43:10;;;;;;;7.40;6.70;;;;;;;8.86;76.87;102274.78;5136665;27;20211;-66
2023/01/03 12:45:52;;;;;;;7.90;4.17;;;;;;;8.90;76.64;102276.41;5136679;27;20161;-66
2023/01/03 12:48:52;;;;;;;5.23;4.90;;;;;;;8.89;76.85;102280.03;5136643;27;20180;-66